< < Back
Terminal Aerodrome Forecast


Current Version              Previous Versions:   1  2  3  4  5  6  7  8  9  

Terminal Aerodrome Forecast

790
FTUS42 KTAE 240100 AAB
TAFABY
TAF AMD
KABY 240135Z 2402/2424 22009KT P6SM BKN012 BKN070 OVC080
      TEMPO 2402/2404 3SM -RA
     FM240700 21010KT 5SM BR OVC004
     FM241500 23010G20KT P6SM OVC015
     FM241600 23015G20KT P6SM BKN030
     FM241800 24015G20KT P6SM SCT030 BKN080=



Latest METAR

012
SAUS70 KWBC 240500 RRH
MTRABY
METAR KABY 240453Z 22006KT 10SM BKN009 OVC039 19/17 A2984 RMK AO2 CIG
006V012 SLP104 T01890172 402330150 PWINO $


USA.gov is the U.S. government's official web portal to all federal, state and local government web resources and services.